createdAt,value
2023-05-10T00:02:20.298Z,12.20
2023-05-10T00:04:47.216Z,12.20
2023-05-10T00:07:14.090Z,12.20
2023-05-10T00:09:41.219Z,12.20
2023-05-10T00:12:08.058Z,12.20
2023-05-10T00:14:35.017Z,12.20
2023-05-10T00:17:01.910Z,12.20
2023-05-10T00:19:28.846Z,12.20
2023-05-10T00:21:55.678Z,12.20
2023-05-10T00:24:22.594Z,12.20
2023-05-10T00:26:49.498Z,12.20
2023-05-10T00:29:16.456Z,12.20
2023-05-10T00:31:43.437Z,12.20
2023-05-10T00:34:10.590Z,12.10
2023-05-10T00:36:37.493Z,12.20
2023-05-10T00:39:04.768Z,12.10
2023-05-10T00:41:34.596Z,12.10
2023-05-10T00:44:03.241Z,12.10
2023-05-10T00:46:30.286Z,12.20
2023-05-10T00:48:57.238Z,12.20
2023-05-10T00:51:24.154Z,12.20
2023-05-10T00:53:52.386Z,12.20
2023-05-10T00:56:21.627Z,12.30
2023-05-10T00:58:48.504Z,12.30
2023-05-10T01:01:15.464Z,12.30
2023-05-10T01:03:42.760Z,12.30
2023-05-10T01:06:11.135Z,12.30
2023-05-10T01:08:38.088Z,12.30
2023-05-10T01:11:05.018Z,12.40
2023-05-10T01:13:33.610Z,12.40
2023-05-10T01:16:02.990Z,12.40
2023-05-10T01:18:34.238Z,12.40
2023-05-10T01:21:10.339Z,12.50
2023-05-10T01:23:42.860Z,12.40
2023-05-10T01:26:48.419Z,12.40
2023-05-10T01:29:24.065Z,12.50
2023-05-10T01:32:08.824Z,12.50
2023-05-10T01:34:36.264Z,12.60
2023-05-10T01:37:07.475Z,12.60
2023-05-10T01:39:51.349Z,12.60
2023-05-10T01:42:21.646Z,12.70
2023-05-10T01:44:54.350Z,12.70
2023-05-10T01:47:39.982Z,12.60
2023-05-10T01:50:08.188Z,12.70
2023-05-10T01:52:39.046Z,12.70
2023-05-10T01:55:06.502Z,12.80
2023-05-10T01:57:36.719Z,12.80
2023-05-10T02:00:07.224Z,12.80
2023-05-10T02:02:43.310Z,12.70
2023-05-10T02:05:11.918Z,12.70
2023-05-10T02:07:38.894Z,12.70
2023-05-10T02:10:08.700Z,12.70
2023-05-10T02:12:42.638Z,12.70
2023-05-10T02:15:09.839Z,12.60
2023-05-10T02:17:37.460Z,12.60
2023-05-10T02:20:08.949Z,12.60
2023-05-10T02:22:36.258Z,12.60
2023-05-10T02:25:03.156Z,12.50
2023-05-10T02:27:30.114Z,12.40
2023-05-10T02:29:57.082Z,12.40
2023-05-10T02:32:24.132Z,12.40
2023-05-10T02:34:53.810Z,12.40
2023-05-10T02:37:21.191Z,12.30
2023-05-10T02:39:48.324Z,12.30
2023-05-10T02:42:17.065Z,12.30
2023-05-10T02:44:44.053Z,12.30
2023-05-10T02:47:10.905Z,12.30
2023-05-10T02:49:37.867Z,12.20
2023-05-10T02:52:06.172Z,12.20
2023-05-10T02:54:33.234Z,12.20
2023-05-10T02:57:01.727Z,12.20
2023-05-10T02:59:28.710Z,12.10
2023-05-10T03:01:55.616Z,12.10
2023-05-10T03:04:23.176Z,12.10
2023-05-10T03:06:50.986Z,12.10
2023-05-10T03:09:17.914Z,12.10
2023-05-10T03:11:46.591Z,12.20
2023-05-10T03:14:17.605Z,12.20
2023-05-10T03:16:48.227Z,12.20
2023-05-10T03:19:15.223Z,12.20
2023-05-10T03:21:43.304Z,12.10
2023-05-10T03:24:12.958Z,12.20
2023-05-10T03:26:41.043Z,12.10
2023-05-10T03:29:12.754Z,12.20
2023-05-10T03:31:39.879Z,12.10
2023-05-10T03:34:07.421Z,12.10
2023-05-10T03:36:34.443Z,12.20
2023-05-10T03:39:01.968Z,12.20
2023-05-10T03:41:29.567Z,12.10
2023-05-10T03:43:56.463Z,12.10
2023-05-10T03:46:23.508Z,12.10
2023-05-10T03:48:50.586Z,12.10
2023-05-10T03:51:17.519Z,12.10
2023-05-10T03:53:44.441Z,12.10
2023-05-10T03:56:11.325Z,12.10
2023-05-10T03:58:38.401Z,12.10
2023-05-10T04:01:05.406Z,12.10
2023-05-10T04:03:32.760Z,12.10
2023-05-10T04:06:03.342Z,12.10
2023-05-10T04:08:30.403Z,12.00
2023-05-10T04:11:10.515Z,12.00
2023-05-10T04:13:37.532Z,12.00
2023-05-10T04:16:04.588Z,12.00
2023-05-10T04:18:31.554Z,11.90
2023-05-10T04:20:58.468Z,11.90
2023-05-10T04:23:25.389Z,11.90
2023-05-10T04:25:52.254Z,11.90
2023-05-10T04:28:19.280Z,11.80
2023-05-10T04:30:46.832Z,11.70
2023-05-10T04:33:13.716Z,11.70
2023-05-10T04:35:41.191Z,11.70
2023-05-10T04:38:08.130Z,11.60
2023-05-10T04:40:35.586Z,11.60
2023-05-10T04:43:02.644Z,11.60
2023-05-10T04:45:29.591Z,11.60
2023-05-10T04:47:56.568Z,11.50
2023-05-10T04:50:23.605Z,11.50
2023-05-10T04:52:50.455Z,11.50
2023-05-10T04:55:17.409Z,11.50
2023-05-10T04:57:44.327Z,11.50
2023-05-10T05:00:11.549Z,11.50
2023-05-10T05:02:38.472Z,11.50
2023-05-10T05:05:05.734Z,11.50
2023-05-10T05:07:32.638Z,11.50
2023-05-10T05:09:59.557Z,11.50
2023-05-10T05:12:26.424Z,11.60
2023-05-10T05:14:53.368Z,11.60
2023-05-10T05:17:20.288Z,11.50
2023-05-10T05:19:47.175Z,11.50
2023-05-10T05:22:14.016Z,11.60
2023-05-10T05:24:40.945Z,11.50
2023-05-10T05:27:08.070Z,11.50
2023-05-10T05:29:34.925Z,11.50
2023-05-10T05:32:01.828Z,11.70
2023-05-10T05:34:28.912Z,11.70
2023-05-10T05:36:55.855Z,11.90
2023-05-10T05:39:23.506Z,12.10
2023-05-10T05:41:50.388Z,12.20
2023-05-10T05:44:17.267Z,12.30
2023-05-10T05:46:44.112Z,12.30
2023-05-10T05:49:11.147Z,12.40
2023-05-10T05:51:38.101Z,12.50
2023-05-10T05:54:05.491Z,12.50
2023-05-10T05:56:32.494Z,12.50
2023-05-10T05:58:59.660Z,12.50
2023-05-10T06:01:26.600Z,12.60
2023-05-10T06:03:53.734Z,12.60
2023-05-10T06:06:20.839Z,12.60
2023-05-10T06:08:47.757Z,12.60
2023-05-10T06:11:14.731Z,12.60
2023-05-10T06:13:41.717Z,12.50
2023-05-10T06:16:08.701Z,12.50
2023-05-10T06:18:35.896Z,12.50
2023-05-10T06:21:02.836Z,12.50
2023-05-10T06:23:29.965Z,12.50
2023-05-10T06:25:56.819Z,12.60
2023-05-10T06:28:23.713Z,12.60
2023-05-10T06:30:51.224Z,12.70
2023-05-10T06:33:18.237Z,12.70
2023-05-10T06:35:45.166Z,12.80
2023-05-10T06:38:12.107Z,12.80
2023-05-10T06:40:42.187Z,12.80
2023-05-10T06:43:09.290Z,12.80
2023-05-10T06:45:36.208Z,13.10
2023-05-10T06:48:03.109Z,13.30
2023-05-10T06:50:30.256Z,13.40
2023-05-10T06:52:57.351Z,13.70
2023-05-10T06:55:24.839Z,13.70
2023-05-10T06:57:51.887Z,13.70
2023-05-10T07:00:19.541Z,13.70
2023-05-10T07:02:46.872Z,14.00
2023-05-10T07:05:14.040Z,14.00
2023-05-10T07:07:41.060Z,14.50
2023-05-10T07:10:08.489Z,14.90
2023-05-10T07:12:35.439Z,15.40
2023-05-10T07:15:02.382Z,15.90
2023-05-10T07:17:29.425Z,15.80
2023-05-10T07:19:56.419Z,15.80
2023-05-10T07:22:23.306Z,15.80
2023-05-10T07:24:50.277Z,16.10
2023-05-10T07:27:17.137Z,16.40
2023-05-10T07:29:44.027Z,16.70
2023-05-10T07:32:10.964Z,16.70
2023-05-10T07:34:37.915Z,17.20
2023-05-10T07:37:04.814Z,17.60
2023-05-10T07:39:31.726Z,18.30
2023-05-10T07:41:58.632Z,18.80
2023-05-10T07:44:25.680Z,18.80
2023-05-10T07:46:53.265Z,19.10
2023-05-10T07:49:20.289Z,19.40
2023-05-10T07:51:47.206Z,19.80
2023-05-10T07:54:14.848Z,20.10
2023-05-10T07:56:46.547Z,20.70
2023-05-10T07:59:16.117Z,21.20
2023-05-10T08:01:42.998Z,21.70
2023-05-10T08:04:10.140Z,21.70
2023-05-10T08:06:37.065Z,21.70
2023-05-10T08:09:04.075Z,21.50
2023-05-10T08:11:31.419Z,21.30
2023-05-10T08:13:59.483Z,21.50
2023-05-10T08:16:26.406Z,21.90
2023-05-10T08:18:53.524Z,22.30
2023-05-10T08:21:20.504Z,22.30
2023-05-10T08:23:47.474Z,22.50
2023-05-10T08:26:14.349Z,22.80
2023-05-10T08:28:41.366Z,22.90
2023-05-10T08:31:08.390Z,22.60
2023-05-10T08:33:35.343Z,22.20
2023-05-10T08:36:02.312Z,22.10
2023-05-10T08:38:29.317Z,22.40
2023-05-10T08:41:00.169Z,22.80
2023-05-10T08:43:31.023Z,22.40
2023-05-10T08:46:00.067Z,22.30
2023-05-10T08:48:27.161Z,22.50
2023-05-10T08:50:54.486Z,23.00
2023-05-10T08:53:21.653Z,23.10
2023-05-10T08:55:48.540Z,23.10
2023-05-10T08:58:15.642Z,23.10
2023-05-10T09:00:42.612Z,23.20
2023-05-10T09:03:09.664Z,22.70
2023-05-10T09:05:37.091Z,22.80
2023-05-10T09:08:04.029Z,23.00
2023-05-10T09:10:31.040Z,22.80
2023-05-10T09:12:59.396Z,23.00
2023-05-10T09:15:26.655Z,23.10
2023-05-10T09:17:53.625Z,23.30
2023-05-10T09:20:20.850Z,23.50
2023-05-10T09:22:48.284Z,23.40
2023-05-10T09:25:16.052Z,23.10
2023-05-10T09:27:46.235Z,22.10
2023-05-10T09:30:24.208Z,21.90
2023-05-10T09:32:51.618Z,21.90
2023-05-10T09:35:19.451Z,21.80
2023-05-10T09:37:47.358Z,21.70
2023-05-10T09:40:18.096Z,21.50
2023-05-10T09:42:58.125Z,21.60
2023-05-10T09:45:25.580Z,21.50
2023-05-10T09:47:52.777Z,20.90
2023-05-10T09:50:20.414Z,21.00
2023-05-10T09:52:50.258Z,21.00
2023-05-10T09:55:17.451Z,21.10
2023-05-10T09:57:44.576Z,21.20
2023-05-10T10:00:11.666Z,21.30
2023-05-10T10:02:41.690Z,21.20
2023-05-10T10:05:09.068Z,21.00
2023-05-10T10:07:36.740Z,21.00
2023-05-10T10:10:03.994Z,20.70
2023-05-10T10:12:30.872Z,20.90
2023-05-10T10:14:57.789Z,20.70
2023-05-10T10:17:25.229Z,20.60
2023-05-10T10:19:52.196Z,20.60
2023-05-10T10:22:19.080Z,20.60
2023-05-10T10:24:46.021Z,20.50
2023-05-10T10:27:16.027Z,20.70
2023-05-10T10:29:51.352Z,20.80
2023-05-10T10:32:53.877Z,20.80
2023-05-10T10:35:20.797Z,20.90
2023-05-10T10:37:48.472Z,20.50
2023-05-10T10:40:25.110Z,20.40
2023-05-10T10:42:52.347Z,20.40
2023-05-10T10:45:19.441Z,20.50
2023-05-10T10:47:46.402Z,20.70
2023-05-10T10:50:17.376Z,20.80
2023-05-10T10:52:44.564Z,20.90
2023-05-10T10:55:11.703Z,20.90
2023-05-10T10:57:41.656Z,20.60
2023-05-10T11:00:26.987Z,20.70
2023-05-10T11:02:54.921Z,20.70
2023-05-10T11:05:25.456Z,20.50
2023-05-10T11:07:52.893Z,20.60
2023-05-10T11:10:26.187Z,20.50
2023-05-10T11:12:53.324Z,20.30
2023-05-10T11:15:20.758Z,20.20
2023-05-10T11:17:53.089Z,19.90
2023-05-10T11:20:24.296Z,20.00
2023-05-10T11:22:54.498Z,20.30
2023-05-10T11:25:21.791Z,20.40
2023-05-10T11:27:49.117Z,20.50
2023-05-10T11:30:16.488Z,20.40
2023-05-10T11:32:43.717Z,20.30
2023-05-10T11:35:14.068Z,20.10
2023-05-10T11:37:44.744Z,20.30
2023-05-10T11:40:12.008Z,20.70
2023-05-10T11:42:39.258Z,20.70
2023-05-10T11:45:06.687Z,20.80
2023-05-10T11:47:33.645Z,20.80
2023-05-10T11:50:01.191Z,20.90
2023-05-10T11:52:28.156Z,21.00
2023-05-10T11:54:55.138Z,20.90
2023-05-10T11:57:22.375Z,20.60
2023-05-10T11:59:49.408Z,20.70
2023-05-10T12:02:16.394Z,20.80
2023-05-10T12:04:43.434Z,20.50
2023-05-10T12:07:10.357Z,20.40
2023-05-10T12:09:43.703Z,20.50
2023-05-10T12:12:11.171Z,20.40
2023-05-10T12:14:38.014Z,20.20
2023-05-10T12:17:04.936Z,20.10
2023-05-10T12:19:38.393Z,20.10
2023-05-10T12:22:08.139Z,20.20
2023-05-10T12:24:39.356Z,20.20
2023-05-10T12:27:09.264Z,20.20
2023-05-10T12:29:36.399Z,20.30
2023-05-10T12:32:03.707Z,20.50
2023-05-10T12:34:34.650Z,20.40
2023-05-10T12:37:01.777Z,20.40
2023-05-10T12:39:39.379Z,20.40
2023-05-10T12:42:06.290Z,20.50
2023-05-10T12:44:33.229Z,20.40
2023-05-10T12:47:00.185Z,20.30
2023-05-10T12:49:27.068Z,20.50
2023-05-10T12:51:53.934Z,20.40
2023-05-10T12:54:20.873Z,20.60
2023-05-10T12:56:47.893Z,20.80
2023-05-10T12:59:14.782Z,20.80
2023-05-10T13:01:41.794Z,20.70
2023-05-10T13:04:08.787Z,20.60
2023-05-10T13:06:36.321Z,20.50
2023-05-10T13:09:03.598Z,20.40
2023-05-10T13:11:30.617Z,20.40
2023-05-10T13:13:57.471Z,20.50
2023-05-10T13:16:24.488Z,20.60
2023-05-10T13:18:51.870Z,20.70
2023-05-10T13:21:18.773Z,20.80
2023-05-10T13:23:45.747Z,21.00
2023-05-10T13:26:12.658Z,21.00
2023-05-10T13:28:40.008Z,20.90
2023-05-10T13:31:07.017Z,20.90
2023-05-10T13:33:34.052Z,21.00
2023-05-10T13:36:00.934Z,20.80
2023-05-10T13:38:27.868Z,20.70
2023-05-10T13:40:54.728Z,20.60
2023-05-10T13:43:21.726Z,20.60
2023-05-10T13:45:48.574Z,20.70
2023-05-10T13:48:15.713Z,20.70
2023-05-10T13:50:42.539Z,20.60
2023-05-10T13:53:09.489Z,20.60
2023-05-10T13:55:37.031Z,20.80
2023-05-10T13:58:03.990Z,21.00
2023-05-10T14:00:31.050Z,20.70
2023-05-10T14:02:57.981Z,20.30
2023-05-10T14:05:26.137Z,19.70
2023-05-10T14:07:53.932Z,19.40
2023-05-10T14:10:21.234Z,19.10
2023-05-10T14:12:48.196Z,19.00
2023-05-10T14:15:15.253Z,18.80
2023-05-10T14:17:42.417Z,18.60
2023-05-10T14:20:09.654Z,18.50
2023-05-10T14:22:36.706Z,18.40
2023-05-10T14:25:03.989Z,18.20
2023-05-10T14:27:31.514Z,18.00
2023-05-10T14:29:58.527Z,17.70
2023-05-10T14:32:25.988Z,17.60
2023-05-10T14:34:53.010Z,17.60
2023-05-10T14:37:19.908Z,17.50
2023-05-10T14:39:46.836Z,17.60
2023-05-10T14:42:13.702Z,17.90
2023-05-10T14:44:40.870Z,18.20
2023-05-10T14:47:08.907Z,18.40
2023-05-10T14:49:36.803Z,18.50
2023-05-10T14:52:04.296Z,18.80
2023-05-10T14:54:31.250Z,19.10
2023-05-10T14:56:58.272Z,19.40
2023-05-10T14:59:25.154Z,19.60
2023-05-10T15:01:52.736Z,19.60
2023-05-10T15:04:19.957Z,19.60
2023-05-10T15:06:47.151Z,19.40
2023-05-10T15:09:14.140Z,19.40
2023-05-10T15:11:41.032Z,19.50
2023-05-10T15:14:07.926Z,19.40
2023-05-10T15:16:36.236Z,19.30
2023-05-10T15:19:03.530Z,19.10
2023-05-10T15:21:36.248Z,18.80
2023-05-10T15:24:03.308Z,18.60
2023-05-10T15:26:30.140Z,18.40
2023-05-10T15:28:57.076Z,18.30
2023-05-10T15:31:24.115Z,18.20
2023-05-10T15:33:51.092Z,18.10
2023-05-10T15:36:19.091Z,17.90
2023-05-10T15:38:45.982Z,17.90
2023-05-10T15:41:12.922Z,18.20
2023-05-10T15:43:39.818Z,18.40
2023-05-10T15:46:07.168Z,18.60
2023-05-10T15:48:34.210Z,18.80
2023-05-10T15:51:01.085Z,19.00
2023-05-10T15:53:27.999Z,19.10
2023-05-10T15:55:55.353Z,19.10
2023-05-10T15:58:22.397Z,19.10
2023-05-10T16:00:49.259Z,19.30
2023-05-10T16:03:16.486Z,19.20
2023-05-10T16:05:43.512Z,19.20
2023-05-10T16:08:10.589Z,19.10
2023-05-10T16:10:38.248Z,19.10
2023-05-10T16:13:05.193Z,18.90
2023-05-10T16:15:32.166Z,18.70
2023-05-10T16:17:59.274Z,18.40
2023-05-10T16:20:26.781Z,18.30
2023-05-10T16:22:53.676Z,18.10
2023-05-10T16:25:20.696Z,18.00
2023-05-10T16:27:47.665Z,17.80
2023-05-10T16:30:14.635Z,17.80
2023-05-10T16:32:41.669Z,17.70
2023-05-10T16:35:08.873Z,17.60
2023-05-10T16:37:36.072Z,17.30
2023-05-10T16:40:03.267Z,17.10
2023-05-10T16:42:30.659Z,16.90
2023-05-10T16:44:57.632Z,16.80
2023-05-10T16:47:27.048Z,16.90
2023-05-10T16:49:54.012Z,16.70
2023-05-10T16:52:20.856Z,16.70
2023-05-10T16:54:47.748Z,16.70
2023-05-10T16:57:14.678Z,16.80
2023-05-10T16:59:41.862Z,16.70
2023-05-10T17:02:08.814Z,16.60
2023-05-10T17:04:35.968Z,16.60
2023-05-10T17:07:02.860Z,16.50
2023-05-10T17:09:29.762Z,16.50
2023-05-10T17:11:56.621Z,16.40
2023-05-10T17:14:23.526Z,16.40
2023-05-10T17:16:52.905Z,16.40
2023-05-10T17:19:20.116Z,16.40
2023-05-10T17:21:47.165Z,16.30
2023-05-10T17:24:14.405Z,16.20
2023-05-10T17:26:41.607Z,16.20
2023-05-10T17:29:08.570Z,16.10
2023-05-10T17:31:35.490Z,16.00
2023-05-10T17:34:04.700Z,16.00
2023-05-10T17:36:32.728Z,16.00
2023-05-10T17:38:59.646Z,15.80
2023-05-10T17:41:26.629Z,15.60
2023-05-10T17:43:54.221Z,15.60
2023-05-10T17:46:21.345Z,15.50
2023-05-10T17:48:48.299Z,15.50
2023-05-10T17:51:15.494Z,15.40
2023-05-10T17:53:42.516Z,15.40
2023-05-10T17:56:09.771Z,15.40
2023-05-10T17:58:38.812Z,15.30
2023-05-10T18:01:06.062Z,15.40
2023-05-10T18:03:33.156Z,15.40
2023-05-10T18:06:00.351Z,15.40
2023-05-10T18:08:28.892Z,15.50
2023-05-10T18:10:55.751Z,15.50
2023-05-10T18:13:22.751Z,15.50
2023-05-10T18:15:49.572Z,15.50
2023-05-10T18:18:17.101Z,15.50
2023-05-10T18:20:44.278Z,15.40
2023-05-10T18:23:11.229Z,15.50
2023-05-10T18:25:38.114Z,15.60
2023-05-10T18:28:05.101Z,15.50
2023-05-10T18:30:31.949Z,15.50
2023-05-10T18:32:58.887Z,15.60
2023-05-10T18:35:25.819Z,15.60
2023-05-10T18:37:52.783Z,15.60
2023-05-10T18:40:19.801Z,15.70
2023-05-10T18:42:46.913Z,15.80
2023-05-10T18:45:14.029Z,15.70
2023-05-10T18:47:40.937Z,15.70
2023-05-10T18:50:08.177Z,15.70
2023-05-10T18:52:36.918Z,15.60
2023-05-10T18:55:04.067Z,15.50
2023-05-10T18:57:31.094Z,15.50
2023-05-10T18:59:58.103Z,15.50
2023-05-10T19:02:26.797Z,15.40
2023-05-10T19:04:53.938Z,15.30
2023-05-10T19:07:21.034Z,15.30
2023-05-10T19:09:47.983Z,15.20
2023-05-10T19:12:14.882Z,15.30
2023-05-10T19:14:41.810Z,15.20
2023-05-10T19:17:08.673Z,15.20
2023-05-10T19:19:35.546Z,15.20
2023-05-10T19:22:03.686Z,15.10
2023-05-10T19:24:30.543Z,15.10
2023-05-10T19:26:58.081Z,15.00
2023-05-10T19:29:25.779Z,14.90
2023-05-10T19:31:53.326Z,14.90
2023-05-10T19:34:20.455Z,14.80
2023-05-10T19:36:47.303Z,14.80
2023-05-10T19:39:14.181Z,14.70
2023-05-10T19:41:41.058Z,14.70
2023-05-10T19:44:08.457Z,14.60
2023-05-10T19:46:35.440Z,14.60
2023-05-10T19:49:02.399Z,14.60
2023-05-10T19:51:29.312Z,14.60
2023-05-10T19:53:56.307Z,14.60
2023-05-10T19:56:23.196Z,14.60
2023-05-10T19:58:50.077Z,14.60
2023-05-10T20:01:16.993Z,14.60
2023-05-10T20:03:44.006Z,14.60
2023-05-10T20:06:10.999Z,14.60
2023-05-10T20:08:38.013Z,14.60
2023-05-10T20:11:04.970Z,14.50
2023-05-10T20:13:32.049Z,14.50
2023-05-10T20:15:59.878Z,14.60
2023-05-10T20:18:27.150Z,14.60
2023-05-10T20:20:55.129Z,14.60
2023-05-10T20:23:22.511Z,14.60
2023-05-10T20:25:49.571Z,14.60
2023-05-10T20:28:20.747Z,14.50
2023-05-10T20:30:47.626Z,14.50
2023-05-10T20:33:16.014Z,14.50
2023-05-10T20:35:42.899Z,14.40
2023-05-10T20:38:09.790Z,14.40
2023-05-10T20:40:36.868Z,14.40
2023-05-10T20:43:05.444Z,14.40
2023-05-10T20:45:32.560Z,14.30
2023-05-10T20:47:59.455Z,14.30
2023-05-10T20:50:26.434Z,14.10
2023-05-10T20:52:53.380Z,14.20
2023-05-10T20:55:20.470Z,14.10
2023-05-10T20:57:47.611Z,14.20
2023-05-10T21:00:14.779Z,14.10
2023-05-10T21:02:45.062Z,14.00
2023-05-10T21:05:12.077Z,14.00
2023-05-10T21:07:39.608Z,13.90
2023-05-10T21:10:07.699Z,13.90
2023-05-10T21:12:34.601Z,13.80
2023-05-10T21:15:01.521Z,13.80
2023-05-10T21:17:28.477Z,13.80
2023-05-10T21:19:55.485Z,13.80
2023-05-10T21:22:22.368Z,13.80
2023-05-10T21:24:49.241Z,13.80
2023-05-10T21:27:16.272Z,13.80
2023-05-10T21:29:43.124Z,13.80
2023-05-10T21:32:10.058Z,13.80
2023-05-10T21:34:37.028Z,13.80
2023-05-10T21:37:03.944Z,13.80
2023-05-10T21:39:30.855Z,13.80
2023-05-10T21:41:59.546Z,13.80
2023-05-10T21:44:26.447Z,13.80
2023-05-10T21:46:53.290Z,13.80
2023-05-10T21:49:20.149Z,13.80
2023-05-10T21:51:47.493Z,13.80
2023-05-10T21:54:14.419Z,13.80
2023-05-10T21:56:41.759Z,13.80
2023-05-10T21:59:08.633Z,13.70
2023-05-10T22:01:35.540Z,13.70
2023-05-10T22:04:02.645Z,13.70
2023-05-10T22:06:29.488Z,13.50
2023-05-10T22:08:56.352Z,13.50
2023-05-10T22:11:23.380Z,13.40
2023-05-10T22:13:50.493Z,13.40
2023-05-10T22:16:17.481Z,13.30
2023-05-10T22:18:44.532Z,13.20
2023-05-10T22:21:11.417Z,13.20
2023-05-10T22:23:38.284Z,13.10
2023-05-10T22:26:05.144Z,13.00
2023-05-10T22:28:32.060Z,13.00
2023-05-10T22:30:58.931Z,12.90
2023-05-10T22:33:25.841Z,12.90
2023-05-10T22:35:52.728Z,12.90
2023-05-10T22:38:19.766Z,12.80
2023-05-10T22:40:46.640Z,12.80
2023-05-10T22:43:13.491Z,12.70
2023-05-10T22:45:40.606Z,12.70
2023-05-10T22:48:07.759Z,12.70
2023-05-10T22:50:34.698Z,12.70
2023-05-10T22:53:01.571Z,12.60
2023-05-10T22:55:28.497Z,12.50
2023-05-10T22:57:55.351Z,12.50
2023-05-10T23:00:22.336Z,12.40
2023-05-10T23:02:49.215Z,12.40
2023-05-10T23:05:16.182Z,12.40
2023-05-10T23:07:43.232Z,12.40
2023-05-10T23:10:10.239Z,12.40
2023-05-10T23:12:37.096Z,12.30
2023-05-10T23:15:04.138Z,12.20
2023-05-10T23:17:31.000Z,12.20
2023-05-10T23:19:57.916Z,12.10
2023-05-10T23:22:24.763Z,12.10
2023-05-10T23:24:51.650Z,12.00
2023-05-10T23:27:18.499Z,11.90
2023-05-10T23:29:45.382Z,11.90
2023-05-10T23:32:12.311Z,11.80
2023-05-10T23:34:39.299Z,11.80
2023-05-10T23:37:06.369Z,11.70
2023-05-10T23:39:33.266Z,11.70
2023-05-10T23:42:00.132Z,11.60
2023-05-10T23:44:27.145Z,11.60
2023-05-10T23:46:54.033Z,11.60
2023-05-10T23:49:21.113Z,11.50
2023-05-10T23:51:48.026Z,11.40
2023-05-10T23:54:14.896Z,11.40
2023-05-10T23:56:41.798Z,11.40
2023-05-10T23:59:08.785Z,11.40
